Terminal Aerodrome Forecast
Issued by NWS Cleveland, OH

Home | Current Version | Previous Version | Graphics & Text | Print | Product List | Glossary On
Versions: 1 2 3 4 5 6 7 8 9 10 11 12 13 14 15 16 17 18 19
000
FTUS41 KCLE 170700 AAA
TAFCAK
TAF AMD
KCAK 170752Z 1708/1806 VRB03KT 4SM BR VCSH BKN007 OVC015
     FM171600 30005KT P6SM SCT012 BKN030
     FM172100 35006KT P6SM BKN050=

USA.gov is the U.S. government's official web portal to all federal, state and local government web resources and services.